Time;durP1;ratioP1;P1;durP2;ratioP2;P2;SDS_P1;SDS_P2;PMS_P1;PMS_P2;Temp;Humidity;BMP_temperature;BMP_pressure;BME280_temperature;BME280_humidity;BME280_pressure;Samples;Min_cycle;Max_cycle;Signal;HPM_P1;HPM_P2
2023/09/11 00:01:23;;;;;;;7.22;5.38;;;18.70;99.90;;;;;;5035141;28;20031;-69
2023/09/11 00:03:50;;;;;;;7.32;6.20;;;18.70;99.90;;;;;;5048245;28;20489;-69
2023/09/11 00:06:16;;;;;;;7.80;6.63;;;18.70;99.90;;;;;;5051744;28;20074;-69
2023/09/11 00:08:42;;;;;;;6.80;5.72;;;18.60;99.90;;;;;;5044961;28;20033;-69
2023/09/11 00:11:07;;;;;;;7.78;6.25;;;18.60;99.90;;;;;;5045447;28;20071;-69
2023/09/11 00:13:33;;;;;;;7.70;6.90;;;18.60;99.90;;;;;;5048065;28;20516;-69
2023/09/11 00:15:59;;;;;;;8.95;6.35;;;18.60;99.90;;;;;;5044846;28;20396;-69
2023/09/11 00:18:25;;;;;;;8.00;6.30;;;18.60;99.90;;;;;;5045174;28;20036;-68
2023/09/11 00:20:51;;;;;;;11.00;7.32;;;18.60;99.90;;;;;;5044802;28;20029;-69
2023/09/11 00:23:17;;;;;;;11.73;7.38;;;18.60;99.90;;;;;;5047930;28;20054;-69
2023/09/11 00:25:43;;;;;;;8.80;7.20;;;18.60;99.90;;;;;;5049355;28;20036;-69
2023/09/11 00:28:09;;;;;;;8.50;7.10;;;18.50;99.90;;;;;;5046054;28;20032;-69
2023/09/11 00:30:36;;;;;;;9.57;7.35;;;18.50;99.90;;;;;;5049036;28;20025;-69
2023/09/11 00:33:03;;;;;;;6.97;6.28;;;18.50;99.90;;;;;;5040698;28;20432;-69
2023/09/11 00:35:28;;;;;;;9.15;6.60;;;18.50;99.90;;;;;;5049215;28;20027;-69
2023/09/11 00:37:54;;;;;;;8.73;6.70;;;18.50;99.90;;;;;;5051148;28;20025;-69
2023/09/11 00:40:20;;;;;;;8.77;6.80;;;18.50;99.90;;;;;;5041518;28;20024;-69
2023/09/11 00:42:45;;;;;;;8.32;6.80;;;18.50;99.90;;;;;;5048969;28;20029;-69
2023/09/11 00:45:12;;;;;;;9.13;6.93;;;18.50;99.90;;;;;;5048863;28;20029;-69
2023/09/11 00:47:44;;;;;;;10.35;7.38;;;18.50;99.90;;;;;;5041458;28;20151;-69
2023/09/11 00:50:11;;;;;;;10.13;6.95;;;18.50;99.90;;;;;;5031387;28;20033;-69
2023/09/11 00:52:37;;;;;;;9.10;7.07;;;18.50;99.90;;;;;;5053245;28;20032;-69
2023/09/11 00:55:05;;;;;;;8.50;7.03;;;18.50;99.90;;;;;;5048424;28;20021;-69
2023/09/11 00:57:31;;;;;;;7.90;6.68;;;18.50;99.90;;;;;;5041157;28;20040;-69
2023/09/11 00:59:57;;;;;;;6.95;6.25;;;18.50;99.90;;;;;;5039306;28;20029;-69
2023/09/11 01:02:23;;;;;;;9.68;6.65;;;18.40;99.90;;;;;;5034190;28;20170;-68
2023/09/11 01:04:49;;;;;;;6.70;5.85;;;18.40;99.90;;;;;;5046721;28;20040;-69
2023/09/11 01:07:17;;;;;;;8.07;6.57;;;18.30;99.90;;;;;;5048184;28;20178;-69
2023/09/11 01:09:42;;;;;;;8.23;6.80;;;18.20;99.90;;;;;;5033037;28;20039;-69
2023/09/11 01:12:08;;;;;;;7.60;5.90;;;18.20;99.90;;;;;;5053412;28;20025;-69
2023/09/11 01:14:37;;;;;;;9.00;6.43;;;18.20;99.90;;;;;;5035630;28;20037;-69
2023/09/11 01:17:09;;;;;;;10.15;6.57;;;18.10;99.90;;;;;;5030616;28;20735;-68
2023/09/11 01:19:44;;;;;;;7.90;6.45;;;18.00;99.90;;;;;;5050793;28;20036;-69
2023/09/11 01:22:58;;;;;;;8.33;5.93;;;18.00;99.90;;;;;;5031408;28;20029;-69
2023/09/11 01:25:33;;;;;;;8.90;6.80;;;18.00;99.90;;;;;;5005772;28;20679;-69
2023/09/11 01:28:34;;;;;;;8.65;6.72;;;17.90;99.90;;;;;;5045099;28;20032;-69
2023/09/11 01:31:01;;;;;;;9.90;6.97;;;17.90;99.90;;;;;;4997795;28;20037;-68
2023/09/11 01:33:27;;;;;;;9.38;6.57;;;17.90;99.90;;;;;;5047725;28;20043;-69
2023/09/11 01:35:52;;;;;;;11.00;7.78;;;17.80;99.90;;;;;;5037732;28;20405;-69
2023/09/11 01:38:19;;;;;;;8.43;7.07;;;17.90;99.90;;;;;;5049256;28;20072;-69
2023/09/11 01:40:51;;;;;;;9.13;7.32;;;17.90;99.90;;;;;;5052835;28;20037;-69
2023/09/11 01:43:19;;;;;;;11.98;6.70;;;17.90;99.90;;;;;;5047846;28;20064;-69
2023/09/11 01:45:46;;;;;;;8.88;6.93;;;17.80;99.90;;;;;;5047665;28;20134;-69
2023/09/11 01:48:12;;;;;;;8.27;6.72;;;17.80;99.90;;;;;;5044639;28;20037;-69
2023/09/11 01:50:40;;;;;;;8.48;6.93;;;17.80;99.90;;;;;;5047648;28;20562;-69
2023/09/11 01:53:06;;;;;;;7.70;6.25;;;17.80;99.90;;;;;;5047219;28;20025;-69
2023/09/11 01:55:34;;;;;;;8.57;6.85;;;17.80;99.90;;;;;;5042094;28;20021;-69
2023/09/11 01:58:00;;;;;;;8.98;7.05;;;17.80;99.90;;;;;;5038154;28;20029;-69
2023/09/11 02:00:26;;;;;;;8.48;7.63;;;17.80;99.90;;;;;;5037638;28;20029;-69
2023/09/11 02:02:55;;;;;;;8.85;6.90;;;17.80;99.90;;;;;;5043007;28;20047;-68
2023/09/11 02:05:21;;;;;;;8.57;6.78;;;17.80;99.90;;;;;;5047408;28;20576;-69
2023/09/11 02:07:47;;;;;;;8.25;6.35;;;17.80;99.90;;;;;;5037130;28;20060;-69
2023/09/11 02:10:13;;;;;;;11.27;7.60;;;17.80;99.90;;;;;;5052142;28;20060;-69
2023/09/11 02:12:39;;;;;;;8.52;6.35;;;17.80;99.90;;;;;;5045615;28;20901;-69
2023/09/11 02:15:06;;;;;;;8.55;6.57;;;17.80;99.90;;;;;;5036646;28;20025;-69
2023/09/11 02:17:32;;;;;;;8.18;6.53;;;17.80;99.90;;;;;;5037229;28;20412;-69
2023/09/11 02:19:58;;;;;;;7.53;6.00;;;17.70;99.90;;;;;;5036852;28;20024;-69
2023/09/11 02:22:23;;;;;;;7.82;6.43;;;17.70;99.90;;;;;;5042752;28;20049;-69
2023/09/11 02:24:49;;;;;;;8.65;6.25;;;17.70;99.90;;;;;;5036915;28;20039;-69
2023/09/11 02:27:15;;;;;;;9.50;6.05;;;17.70;99.90;;;;;;5035654;28;20511;-69
2023/09/11 02:29:40;;;;;;;11.15;7.05;;;17.60;99.90;;;;;;5036803;28;20401;-69
2023/09/11 02:32:06;;;;;;;6.97;6.28;;;17.60;99.90;;;;;;5037413;28;20524;-69
2023/09/11 02:34:32;;;;;;;7.15;5.97;;;17.60;99.90;;;;;;5036595;28;20032;-68
2023/09/11 02:36:58;;;;;;;7.10;6.40;;;17.60;99.90;;;;;;5029257;28;20098;-69
2023/09/11 02:39:23;;;;;;;9.77;7.38;;;17.60;99.90;;;;;;5046767;28;20086;-69
2023/09/11 02:41:49;;;;;;;6.40;5.25;;;17.60;99.90;;;;;;5033654;28;20064;-69
2023/09/11 02:44:15;;;;;;;8.13;5.95;;;17.60;99.90;;;;;;5046780;28;20048;-69
2023/09/11 02:46:43;;;;;;;6.38;5.55;;;17.60;99.90;;;;;;5036823;28;20764;-69
2023/09/11 02:49:09;;;;;;;7.15;6.03;;;17.60;99.90;;;;;;5036572;28;20025;-69
2023/09/11 02:51:34;;;;;;;7.80;6.82;;;17.70;99.90;;;;;;5036275;28;20106;-69
2023/09/11 02:54:00;;;;;;;8.48;6.57;;;17.70;99.90;;;;;;5036289;28;20021;-69
2023/09/11 02:56:26;;;;;;;8.93;6.95;;;17.70;99.90;;;;;;5046533;28;20507;-69
2023/09/11 02:58:52;;;;;;;7.68;6.30;;;17.70;99.90;;;;;;5044363;28;20064;-69
2023/09/11 03:01:18;;;;;;;7.30;6.13;;;17.70;99.90;;;;;;5046382;28;20112;-69
2023/09/11 03:03:45;;;;;;;6.80;5.70;;;17.70;99.90;;;;;;5046852;28;20029;-69
2023/09/11 03:06:11;;;;;;;6.13;5.53;;;17.70;99.90;;;;;;5036254;28;20095;-69
2023/09/11 03:08:36;;;;;;;6.63;5.95;;;17.70;99.90;;;;;;5045959;28;20604;-69
2023/09/11 03:11:06;;;;;;;7.53;6.50;;;17.70;99.90;;;;;;5028001;28;20047;-69
2023/09/11 03:13:33;;;;;;;7.38;5.82;;;17.70;99.90;;;;;;5035983;28;20052;-69
2023/09/11 03:16:12;;;;;;;6.28;5.68;;;17.70;99.90;;;;;;5044367;28;20079;-68
2023/09/11 03:18:41;;;;;;;7.53;5.53;;;17.60;99.90;;;;;;5027638;28;20029;-68
2023/09/11 03:21:07;;;;;;;6.70;5.80;;;17.70;99.90;;;;;;5036197;28;20029;-69
2023/09/11 03:23:34;;;;;;;8.10;5.88;;;17.70;99.90;;;;;;5046017;28;20452;-69
2023/09/11 03:26:00;;;;;;;7.10;5.65;;;17.60;99.90;;;;;;5039243;28;20032;-69
2023/09/11 03:28:30;;;;;;;7.30;5.03;;;17.60;99.90;;;;;;5045563;28;20094;-69
2023/09/11 03:30:56;;;;;;;7.68;6.07;;;17.50;99.90;;;;;;5035826;28;20028;-69
2023/09/11 03:33:22;;;;;;;8.02;5.47;;;17.50;99.90;;;;;;5045323;28;20029;-69
2023/09/11 03:35:49;;;;;;;7.05;5.63;;;17.50;99.90;;;;;;5056552;28;20074;-69
2023/09/11 03:38:15;;;;;;;7.13;5.80;;;17.50;99.90;;;;;;5035608;28;20660;-69
2023/09/11 03:40:43;;;;;;;9.30;5.88;;;17.50;99.90;;;;;;5045079;28;20489;-68
2023/09/11 03:43:09;;;;;;;6.80;5.45;;;17.40;99.90;;;;;;5036570;28;20031;-69
2023/09/11 03:45:36;;;;;;;6.93;6.22;;;17.40;99.90;;;;;;5035727;28;20043;-68
2023/09/11 03:48:03;;;;;;;9.05;7.15;;;17.30;99.90;;;;;;5035336;28;20106;-67
2023/09/11 03:50:28;;;;;;;6.40;5.72;;;17.30;99.90;;;;;;5051900;28;20036;-69
2023/09/11 03:52:55;;;;;;;7.75;5.72;;;17.20;99.90;;;;;;5038169;28;20036;-69
2023/09/11 03:55:21;;;;;;;6.80;6.10;;;17.20;99.90;;;;;;5045245;28;20086;-68
2023/09/11 03:57:47;;;;;;;11.85;6.55;;;17.10;99.90;;;;;;5043477;28;20040;-69
2023/09/11 04:00:13;;;;;;;8.23;5.57;;;17.10;99.90;;;;;;5040101;28;20029;-69
2023/09/11 04:02:39;;;;;;;8.82;5.95;;;17.10;99.90;;;;;;5038222;28;20496;-69
2023/09/11 04:05:06;;;;;;;6.68;5.82;;;17.10;99.90;;;;;;5035268;28;20056;-68
2023/09/11 04:07:35;;;;;;;8.20;6.35;;;17.00;99.90;;;;;;5035779;28;20564;-68
2023/09/11 04:10:00;;;;;;;9.50;7.22;;;17.00;99.90;;;;;;5057478;28;20489;-69
2023/09/11 04:12:26;;;;;;;8.85;6.80;;;17.00;99.90;;;;;;5044845;28;20041;-69
2023/09/11 04:14:52;;;;;;;9.32;6.70;;;17.00;99.90;;;;;;5035880;28;20802;-69
2023/09/11 04:17:18;;;;;;;9.52;6.97;;;17.00;99.90;;;;;;5041099;28;20029;-69
2023/09/11 04:19:44;;;;;;;8.80;6.65;;;17.00;99.90;;;;;;5034914;28;20025;-69
2023/09/11 04:22:11;;;;;;;8.10;5.80;;;16.90;99.90;;;;;;5044531;28;20025;-69
2023/09/11 04:24:37;;;;;;;8.30;6.07;;;16.90;99.90;;;;;;5043325;28;20178;-69
2023/09/11 04:27:03;;;;;;;8.40;6.75;;;16.90;99.90;;;;;;5029900;28;20111;-69
2023/09/11 04:29:31;;;;;;;8.77;6.20;;;16.90;99.90;;;;;;5033094;28;20052;-69
2023/09/11 04:31:57;;;;;;;10.77;6.70;;;16.90;99.90;;;;;;5034682;28;20864;-68
2023/09/11 04:34:23;;;;;;;9.00;6.60;;;16.80;99.90;;;;;;5033671;28;20025;-69
2023/09/11 04:36:49;;;;;;;8.65;6.85;;;16.80;99.90;;;;;;5054217;28;20504;-69
2023/09/11 04:39:15;;;;;;;11.38;6.80;;;16.90;99.90;;;;;;5040484;28;20078;-69
2023/09/11 04:41:41;;;;;;;8.57;7.10;;;16.90;99.90;;;;;;5039874;28;20029;-69
2023/09/11 04:44:08;;;;;;;9.50;6.40;;;16.80;99.90;;;;;;5039210;28;20021;-69
2023/09/11 04:46:33;;;;;;;10.98;6.70;;;16.80;99.90;;;;;;5039365;28;20558;-69
2023/09/11 04:48:59;;;;;;;11.23;7.05;;;16.80;99.90;;;;;;5035888;28;20033;-69
2023/09/11 04:51:25;;;;;;;8.68;7.07;;;16.80;99.90;;;;;;5042892;28;20507;-69
2023/09/11 04:53:51;;;;;;;8.30;6.80;;;16.80;99.90;;;;;;5034441;28;20072;-69
2023/09/11 04:56:17;;;;;;;8.27;6.70;;;16.80;99.90;;;;;;5034613;28;20032;-69
2023/09/11 04:58:43;;;;;;;8.63;6.68;;;16.80;99.90;;;;;;5034511;28;20627;-69
2023/09/11 05:01:09;;;;;;;8.70;7.07;;;16.90;99.90;;;;;;5035647;28;20112;-69
2023/09/11 05:03:37;;;;;;;7.25;6.55;;;16.90;99.90;;;;;;5035223;28;20128;-69
2023/09/11 05:06:03;;;;;;;8.85;6.53;;;16.90;99.90;;;;;;5026887;28;20044;-69
2023/09/11 05:08:29;;;;;;;9.68;6.85;;;16.90;99.90;;;;;;5042140;28;20032;-69
2023/09/11 05:10:55;;;;;;;9.55;6.90;;;16.90;99.90;;;;;;5037139;28;20460;-69
2023/09/11 05:13:21;;;;;;;9.40;7.03;;;17.00;99.90;;;;;;5046034;28;20078;-69
2023/09/11 05:15:49;;;;;;;8.00;7.05;;;17.00;99.90;;;;;;5040700;28;20040;-69
2023/09/11 05:18:15;;;;;;;9.13;7.35;;;17.00;99.90;;;;;;5038190;28;20029;-69
2023/09/11 05:20:41;;;;;;;10.02;7.53;;;17.10;99.90;;;;;;5041545;28;20035;-69
2023/09/11 05:23:07;;;;;;;9.07;7.50;;;17.10;99.90;;;;;;5039066;28;20083;-69
2023/09/11 05:25:36;;;;;;;10.30;7.88;;;17.10;99.90;;;;;;5048084;28;20405;-69
2023/09/11 05:28:02;;;;;;;9.55;7.80;;;17.20;99.90;;;;;;5047890;28;20123;-69
2023/09/11 05:30:28;;;;;;;11.85;7.80;;;17.20;99.90;;;;;;5047537;28;20051;-68
2023/09/11 05:32:54;;;;;;;8.30;6.78;;;17.30;99.90;;;;;;5047714;28;20041;-69
2023/09/11 05:35:20;;;;;;;7.65;6.10;;;17.30;99.90;;;;;;5047507;28;20033;-69
2023/09/11 05:37:46;;;;;;;9.40;6.32;;;17.40;99.90;;;;;;5047686;28;20140;-69
2023/09/11 05:40:11;;;;;;;11.50;6.45;;;17.40;99.90;;;;;;5047606;28;20125;-69
2023/09/11 05:42:37;;;;;;;8.45;6.68;;;17.40;99.90;;;;;;5047502;28;20063;-69
2023/09/11 05:45:04;;;;;;;8.70;6.05;;;17.50;99.90;;;;;;5049324;28;20095;-69
2023/09/11 05:47:30;;;;;;;8.23;6.63;;;17.50;99.90;;;;;;5052336;28;20033;-69
2023/09/11 05:50:00;;;;;;;11.73;6.65;;;17.50;99.90;;;;;;5047589;28;20033;-69
2023/09/11 05:52:29;;;;;;;7.60;6.80;;;17.60;99.90;;;;;;5050462;28;20082;-69
2023/09/11 05:54:55;;;;;;;8.95;6.70;;;17.60;99.90;;;;;;5047071;28;20492;-69
2023/09/11 05:57:21;;;;;;;10.27;6.97;;;17.60;99.90;;;;;;5047630;28;20037;-69
2023/09/11 05:59:47;;;;;;;7.35;5.95;;;17.70;99.90;;;;;;5052744;28;20036;-68
2023/09/11 06:02:13;;;;;;;9.10;7.15;;;17.70;99.90;;;;;;5047399;28;20110;-69
2023/09/11 06:04:38;;;;;;;9.40;7.13;;;17.80;99.90;;;;;;5047521;28;20439;-68
2023/09/11 06:07:04;;;;;;;7.43;6.53;;;17.80;99.90;;;;;;5047323;28;20025;-68
2023/09/11 06:09:30;;;;;;;8.32;6.82;;;17.90;99.90;;;;;;5048239;28;20033;-69
2023/09/11 06:11:57;;;;;;;9.82;7.57;;;17.90;99.90;;;;;;5047550;28;20623;-69
2023/09/11 06:14:23;;;;;;;8.10;7.20;;;18.00;99.90;;;;;;5047111;28;20549;-68
2023/09/11 06:16:50;;;;;;;10.65;7.40;;;18.10;99.90;;;;;;5053482;28;20033;-69
2023/09/11 06:19:16;;;;;;;10.35;8.50;;;18.10;99.90;;;;;;5046684;28;20067;-69
2023/09/11 06:21:45;;;;;;;9.20;8.15;;;18.20;99.90;;;;;;5046869;28;20043;-69
2023/09/11 06:24:11;;;;;;;11.77;8.75;;;18.20;99.90;;;;;;5051760;28;20032;-69
2023/09/11 06:26:37;;;;;;;11.98;9.43;;;18.30;99.90;;;;;;5046294;28;20161;-68
2023/09/11 06:29:03;;;;;;;11.88;10.05;;;18.40;99.90;;;;;;5055029;28;20091;-68
2023/09/11 06:31:30;;;;;;;11.93;10.25;;;18.40;99.90;;;;;;5046737;28;20037;-69
2023/09/11 06:33:56;;;;;;;13.70;9.88;;;18.50;99.90;;;;;;5046668;28;20025;-69
2023/09/11 06:36:22;;;;;;;14.65;10.02;;;18.60;99.90;;;;;;5057926;28;20175;-69
2023/09/11 06:38:48;;;;;;;11.52;9.98;;;18.70;99.90;;;;;;5046842;28;20469;-68
2023/09/11 06:41:13;;;;;;;16.15;10.73;;;18.80;99.90;;;;;;5052070;28;20031;-68
2023/09/11 06:43:39;;;;;;;14.10;10.95;;;18.90;99.90;;;;;;5046551;28;20037;-69
2023/09/11 06:46:05;;;;;;;12.20;10.20;;;19.10;99.90;;;;;;5034795;28;20532;-69
2023/09/11 06:48:31;;;;;;;13.48;10.60;;;19.20;99.90;;;;;;5049402;28;20036;-68
2023/09/11 06:50:57;;;;;;;11.80;10.07;;;19.30;99.90;;;;;;5046600;28;20045;-69
2023/09/11 06:53:22;;;;;;;13.57;10.70;;;19.40;99.90;;;;;;5046472;28;20047;-69
2023/09/11 06:55:48;;;;;;;12.25;9.75;;;19.50;99.90;;;;;;5049142;28;20496;-68
2023/09/11 06:58:14;;;;;;;11.73;9.98;;;19.60;99.90;;;;;;5046097;28;20126;-69
2023/09/11 07:00:41;;;;;;;13.88;10.23;;;19.80;99.90;;;;;;5046204;28;20120;-69
2023/09/11 07:03:06;;;;;;;13.25;10.57;;;19.90;99.90;;;;;;5036425;28;20778;-69
2023/09/11 07:05:32;;;;;;;10.90;9.27;;;20.10;99.90;;;;;;5047440;28;20040;-69
2023/09/11 07:07:58;;;;;;;12.27;10.63;;;20.20;99.90;;;;;;5046881;28;20086;-69
2023/09/11 07:10:24;;;;;;;12.65;10.48;;;20.40;99.90;;;;;;5046148;28;20560;-69
2023/09/11 07:12:50;;;;;;;11.75;10.35;;;20.70;99.90;;;;;;5044335;28;20140;-68
2023/09/11 07:15:19;;;;;;;9.85;8.85;;;21.00;99.90;;;;;;5045899;28;20040;-68
2023/09/11 07:17:48;;;;;;;12.23;9.63;;;21.30;99.90;;;;;;5051005;28;20047;-69
2023/09/11 07:20:14;;;;;;;11.77;10.50;;;21.40;99.90;;;;;;5049469;28;20409;-69
2023/09/11 07:22:40;;;;;;;14.32;9.98;;;21.50;99.90;;;;;;5045516;28;20485;-68
2023/09/11 07:25:11;;;;;;;11.82;9.25;;;21.60;99.90;;;;;;5049442;28;20082;-69
2023/09/11 07:27:37;;;;;;;12.40;9.15;;;21.70;99.90;;;;;;5045723;28;20047;-69
2023/09/11 07:30:04;;;;;;;15.45;9.23;;;21.70;99.90;;;;;;5045474;28;20268;-70
2023/09/11 07:32:30;;;;;;;12.90;9.63;;;21.90;99.90;;;;;;5045441;28;20070;-69
2023/09/11 07:34:56;;;;;;;11.68;8.00;;;21.90;99.90;;;;;;5045482;28;20068;-68
2023/09/11 07:37:23;;;;;;;13.40;8.52;;;22.00;99.90;;;;;;5044751;28;20029;-69
2023/09/11 07:39:48;;;;;;;10.35;7.82;;;22.10;99.90;;;;;;5049123;28;20048;-69
2023/09/11 07:42:14;;;;;;;8.45;7.50;;;22.20;99.90;;;;;;5049438;28;20042;-69
2023/09/11 07:44:42;;;;;;;12.23;8.60;;;22.20;99.90;;;;;;5045010;28;20036;-69
2023/09/11 07:47:07;;;;;;;13.30;7.13;;;22.40;99.90;;;;;;5046717;28;20040;-70
2023/09/11 07:49:33;;;;;;;9.35;7.25;;;22.40;99.90;;;;;;5045215;28;20396;-69
2023/09/11 07:51:59;;;;;;;12.43;7.65;;;22.50;99.90;;;;;;5046106;28;20036;-69
2023/09/11 07:54:25;;;;;;;10.35;8.18;;;22.60;99.90;;;;;;5049022;28;20025;-69
2023/09/11 07:56:52;;;;;;;11.70;6.80;;;22.70;99.90;;;;;;5045321;28;20637;-69
2023/09/11 07:59:18;;;;;;;10.10;8.25;;;22.80;99.90;;;;;;5053484;28;20029;-69
2023/09/11 08:01:44;;;;;;;8.45;7.45;;;23.00;99.50;;;;;;5055433;28;20586;-69
2023/09/11 08:04:10;;;;;;;10.10;7.90;;;23.10;99.00;;;;;;5052110;28;20033;-69
2023/09/11 08:06:35;;;;;;;9.20;6.75;;;23.10;99.00;;;;;;5045056;28;20519;-69
2023/09/11 08:09:03;;;;;;;9.57;7.30;;;23.30;98.80;;;;;;5051197;28;20036;-69
2023/09/11 08:11:30;;;;;;;9.15;7.40;;;23.30;98.70;;;;;;5045053;28;20032;-69
2023/09/11 08:13:56;;;;;;;16.27;7.85;;;23.40;98.70;;;;;;5044868;28;20182;-69
2023/09/11 08:16:23;;;;;;;13.82;7.45;;;23.50;97.60;;;;;;5045981;28;20648;-69
2023/09/11 08:18:49;;;;;;;12.00;7.57;;;23.60;97.50;;;;;;5046855;28;20029;-69
2023/09/11 08:21:14;;;;;;;9.63;7.18;;;23.70;97.30;;;;;;5054415;28;20028;-69
2023/09/11 08:23:44;;;;;;;9.88;6.97;;;23.80;97.20;;;;;;5048238;28;20583;-69
2023/09/11 08:26:10;;;;;;;10.68;6.90;;;23.90;97.60;;;;;;5053539;28;20433;-69
2023/09/11 08:28:36;;;;;;;10.18;6.88;;;23.90;97.50;;;;;;5050981;28;20067;-70
2023/09/11 08:31:03;;;;;;;11.60;6.57;;;24.00;97.10;;;;;;5046750;28;20040;-68
2023/09/11 08:33:30;;;;;;;9.20;6.57;;;24.10;96.20;;;;;;5044608;28;20075;-69
2023/09/11 08:35:56;;;;;;;10.40;6.68;;;24.10;96.20;;;;;;5044530;28;20524;-70
2023/09/11 08:38:22;;;;;;;8.15;6.63;;;24.30;95.60;;;;;;5044543;28;20086;-69
2023/09/11 08:40:48;;;;;;;8.95;6.05;;;24.40;95.60;;;;;;5048135;28;20206;-69
2023/09/11 08:43:14;;;;;;;11.15;6.03;;;24.40;95.30;;;;;;5044490;28;20033;-70
2023/09/11 08:45:40;;;;;;;8.18;6.20;;;24.50;95.00;;;;;;5045520;28;20036;-69
2023/09/11 08:48:14;;;;;;;6.95;6.10;;;24.70;94.20;;;;;;5044256;28;20028;-70
2023/09/11 08:50:50;;;;;;;11.27;6.60;;;24.80;94.10;;;;;;5060489;28;20048;-69
2023/09/11 08:53:18;;;;;;;6.85;6.07;;;24.90;94.30;;;;;;5041307;28;20105;-69
2023/09/11 08:55:46;;;;;;;9.60;6.57;;;24.90;93.90;;;;;;5046635;28;20071;-69
2023/09/11 08:58:14;;;;;;;10.57;6.25;;;25.10;91.50;;;;;;5060663;28;20032;-70
2023/09/11 09:00:40;;;;;;;7.72;6.38;;;25.50;91.30;;;;;;5052310;28;20063;-70
2023/09/11 09:03:08;;;;;;;6.65;5.40;;;25.80;90.90;;;;;;5050789;28;20052;-69
2023/09/11 09:05:34;;;;;;;9.25;5.78;;;26.00;91.10;;;;;;5053721;28;20115;-70
2023/09/11 09:08:02;;;;;;;6.90;5.45;;;26.10;87.10;;;;;;5046160;28;20120;-70
2023/09/11 09:10:28;;;;;;;8.07;5.55;;;26.30;86.70;;;;;;5050585;28;20054;-70
2023/09/11 09:12:54;;;;;;;6.28;5.28;;;26.30;89.00;;;;;;5048380;28;20032;-70
2023/09/11 09:15:21;;;;;;;6.43;5.47;;;26.30;89.20;;;;;;5048332;28;20040;-70
2023/09/11 09:17:49;;;;;;;8.23;5.72;;;26.30;89.20;;;;;;5047838;28;20091;-69
2023/09/11 09:20:16;;;;;;;5.68;4.70;;;26.40;86.80;;;;;;5047908;28;20033;-70
2023/09/11 09:22:58;;;;;;;9.27;4.85;;;26.50;85.70;;;;;;5047832;28;20031;-70
2023/09/11 09:25:24;;;;;;;5.38;4.78;;;26.80;82.20;;;;;;5048424;28;20431;-69
2023/09/11 09:27:50;;;;;;;10.13;5.13;;;26.80;84.30;;;;;;5048097;28;20473;-70
2023/09/11 09:30:21;;;;;;;6.13;4.70;;;27.00;79.60;;;;;;5047785;28;20033;-70
2023/09/11 09:32:48;;;;;;;4.57;4.10;;;27.00;80.00;;;;;;5047504;28;20562;-70
2023/09/11 09:35:15;;;;;;;5.80;5.13;;;27.00;80.50;;;;;;5048142;28;20075;-70
2023/09/11 09:37:58;;;;;;;6.55;4.75;;;27.20;81.20;;;;;;5048126;28;20393;-70
2023/09/11 09:40:32;;;;;;;8.13;4.68;;;27.40;79.40;;;;;;5036540;28;20124;-70
2023/09/11 09:42:59;;;;;;;8.15;4.70;;;27.60;77.70;;;;;;5050403;28;20063;-69
2023/09/11 09:45:37;;;;;;;7.82;4.50;;;27.60;78.00;;;;;;5047953;28;20099;-70
2023/09/11 09:48:06;;;;;;;8.52;4.95;;;27.70;76.40;;;;;;5052721;28;20525;-70
2023/09/11 09:50:57;;;;;;;5.68;4.20;;;27.80;75.90;;;;;;5051412;28;20036;-70
2023/09/11 09:53:31;;;;;;;5.43;4.65;;;27.70;77.60;;;;;;5050169;28;20685;-70
2023/09/11 09:56:03;;;;;;;7.03;4.45;;;27.80;75.40;;;;;;5051229;28;20032;-70
2023/09/11 09:58:30;;;;;;;5.13;4.45;;;28.00;76.00;;;;;;5047180;28;20025;-69
2023/09/11 10:01:05;;;;;;;5.00;4.40;;;28.00;74.40;;;;;;5046089;28;20087;-70
2023/09/11 10:03:51;;;;;;;6.30;4.55;;;28.10;75.80;;;;;;5047544;28;20063;-70
2023/09/11 10:06:21;;;;;;;4.80;4.28;;;28.20;74.00;;;;;;5041226;28;20053;-69
2023/09/11 10:09:07;;;;;;;6.65;4.82;;;28.50;74.00;;;;;;5031837;28;20040;-70
2023/09/11 10:11:34;;;;;;;6.35;4.80;;;28.90;71.80;;;;;;5050781;28;20086;-69
2023/09/11 10:14:04;;;;;;;6.00;4.50;;;29.10;70.40;;;;;;5050530;28;20045;-70
2023/09/11 10:16:30;;;;;;;6.57;3.90;;;29.30;71.70;;;;;;5047002;28;20492;-70
2023/09/11 10:18:58;;;;;;;6.45;4.68;;;29.60;69.80;;;;;;5046602;28;20025;-70
2023/09/11 10:21:25;;;;;;;7.20;4.78;;;30.00;67.30;;;;;;5046920;28;20033;-70
2023/09/11 10:23:52;;;;;;;11.60;4.15;;;30.30;65.20;;;;;;5046625;28;20044;-70
2023/09/11 10:26:26;;;;;;;7.88;3.97;;;30.50;64.40;;;;;;5047147;28;20123;-70
2023/09/11 10:28:55;;;;;;;4.60;4.15;;;30.70;63.20;;;;;;5046952;28;20037;-70
2023/09/11 10:31:31;;;;;;;6.85;4.22;;;30.60;63.70;;;;;;5055007;28;20470;-70
2023/09/11 10:34:00;;;;;;;6.75;3.78;;;30.50;63.30;;;;;;5055550;28;20144;-70
2023/09/11 10:36:38;;;;;;;7.20;4.38;;;30.30;64.70;;;;;;5050225;28;20071;-69
2023/09/11 10:39:08;;;;;;;7.40;4.28;;;30.20;64.10;;;;;;5045371;28;20029;-70
2023/09/11 10:41:35;;;;;;;9.20;4.40;;;30.20;63.70;;;;;;5046494;28;20710;-70
2023/09/11 10:44:02;;;;;;;8.68;4.95;;;30.20;63.60;;;;;;5046286;28;20564;-70
2023/09/11 10:46:39;;;;;;;6.10;4.22;;;30.20;62.80;;;;;;5047975;28;20042;-70
2023/09/11 10:49:16;;;;;;;7.97;4.70;;;30.10;64.20;;;;;;5045612;28;20040;-70
2023/09/11 10:51:44;;;;;;;7.72;4.10;;;30.10;62.70;;;;;;5046352;28;20051;-70
2023/09/11 10:54:16;;;;;;;6.68;4.13;;;30.10;64.50;;;;;;5046146;28;20035;-70
2023/09/11 10:56:42;;;;;;;11.20;3.97;;;30.40;64.00;;;;;;5044469;28;20746;-70
2023/09/11 10:59:09;;;;;;;9.68;4.57;;;30.50;61.50;;;;;;5048388;28;20039;-70
2023/09/11 11:01:36;;;;;;;4.90;3.90;;;30.50;61.30;;;;;;5051553;28;20094;-70
2023/09/11 11:04:04;;;;;;;4.60;4.03;;;30.40;60.30;;;;;;5049050;28;20039;-69
2023/09/11 11:06:30;;;;;;;5.53;3.92;;;30.10;61.00;;;;;;5046597;28;20037;-70
2023/09/11 11:08:57;;;;;;;6.70;3.83;;;30.00;60.70;;;;;;5046067;28;20033;-69
2023/09/11 11:11:30;;;;;;;12.82;4.20;;;29.90;61.20;;;;;;5046658;28;20025;-70
2023/09/11 11:14:17;;;;;;;10.45;4.47;;;29.90;63.80;;;;;;5048200;28;20412;-70
2023/09/11 11:17:16;;;;;;;8.00;4.00;;;30.00;61.70;;;;;;5045268;28;20086;-70
2023/09/11 11:20:00;;;;;;;12.35;4.85;;;30.00;62.50;;;;;;5036713;28;20040;-70
2023/09/11 11:22:32;;;;;;;9.32;4.05;;;30.10;60.90;;;;;;5039682;28;20057;-70
2023/09/11 11:24:58;;;;;;;6.03;4.05;;;30.10;60.70;;;;;;5045033;28;20280;-70
2023/09/11 11:27:24;;;;;;;7.57;4.90;;;30.20;61.80;;;;;;5045746;28;20609;-69
2023/09/11 11:29:52;;;;;;;7.22;4.40;;;30.30;61.60;;;;;;5045455;28;20102;-70
2023/09/11 11:32:20;;;;;;;6.57;4.68;;;30.40;61.10;;;;;;5045891;28;20033;-70
2023/09/11 11:34:50;;;;;;;6.60;3.92;;;30.40;61.40;;;;;;5045448;28;20041;-70
2023/09/11 11:37:20;;;;;;;8.30;4.05;;;30.60;60.90;;;;;;5045342;28;20025;-69
2023/09/11 11:39:46;;;;;;;4.72;3.90;;;30.60;59.90;;;;;;5045270;28;20560;-70
2023/09/11 11:42:13;;;;;;;10.27;3.88;;;30.50;59.50;;;;;;5038104;28;20488;-70
2023/09/11 11:44:40;;;;;;;6.40;3.72;;;30.40;60.10;;;;;;5045397;28;20063;-70
2023/09/11 11:47:07;;;;;;;6.38;3.60;;;30.40;60.80;;;;;;5046443;28;20151;-70
2023/09/11 11:49:36;;;;;;;8.77;3.95;;;30.40;61.10;;;;;;5045302;28;20253;-70
2023/09/11 11:52:03;;;;;;;7.82;3.80;;;30.40;60.40;;;;;;5061429;28;20032;-70
2023/09/11 11:54:29;;;;;;;8.93;4.10;;;30.40;59.40;;;;;;5056626;28;20210;-70
2023/09/11 11:56:56;;;;;;;9.73;3.75;;;30.40;59.30;;;;;;5045594;28;20032;-70
2023/09/11 11:59:22;;;;;;;6.47;3.80;;;30.50;57.40;;;;;;5051135;28;20025;-69
2023/09/11 12:01:48;;;;;;;6.95;3.42;;;30.40;58.80;;;;;;5045061;28;20029;-69
2023/09/11 12:04:14;;;;;;;11.07;3.97;;;30.40;56.40;;;;;;5044953;28;20029;-70
2023/09/11 12:06:40;;;;;;;6.35;3.50;;;30.40;57.90;;;;;;5052459;28;20614;-70
2023/09/11 12:09:09;;;;;;;8.13;3.88;;;30.40;58.20;;;;;;5044855;28;20029;-70
2023/09/11 12:11:38;;;;;;;11.27;4.07;;;30.40;59.80;;;;;;5044523;28;20043;-70
2023/09/11 12:14:05;;;;;;;7.20;4.10;;;30.40;59.20;;;;;;5043956;28;20036;-69
2023/09/11 12:16:32;;;;;;;6.97;3.80;;;30.40;58.50;;;;;;5045339;28;20025;-70
2023/09/11 12:18:58;;;;;;;7.22;3.97;;;30.40;58.40;;;;;;5045226;28;20107;-70
2023/09/11 12:21:23;;;;;;;5.60;3.83;;;30.30;58.70;;;;;;5047797;28;20028;-70
2023/09/11 12:23:49;;;;;;;7.45;3.75;;;30.30;58.00;;;;;;5044011;28;20703;-70
2023/09/11 12:26:15;;;;;;;6.35;4.05;;;30.30;58.80;;;;;;5044784;28;20119;-69
2023/09/11 12:28:41;;;;;;;9.05;4.45;;;30.30;58.70;;;;;;5044646;28;20056;-70
2023/09/11 12:31:07;;;;;;;4.85;3.80;;;30.40;57.60;;;;;;5059489;28;20118;-70
2023/09/11 12:33:34;;;;;;;7.53;3.85;;;30.40;56.90;;;;;;5048741;28;20039;-69
2023/09/11 12:36:00;;;;;;;13.48;3.88;;;30.40;57.80;;;;;;5046354;28;20070;-70
2023/09/11 12:38:27;;;;;;;9.38;4.32;;;30.40;57.10;;;;;;5048848;28;20063;-69
2023/09/11 12:40:53;;;;;;;9.60;4.32;;;30.50;58.10;;;;;;5044918;28;20029;-70
2023/09/11 12:43:21;;;;;;;6.72;3.80;;;30.60;57.70;;;;;;5044657;28;20045;-69
2023/09/11 12:45:48;;;;;;;4.72;3.83;;;30.50;56.80;;;;;;5046766;28;20033;-70